CheckWX is a tool to help pilots better visualize weather data.  It is not intended as a substitute for an official pre-flight weather briefing.

08:36:22 UTC

KEWB METAR
New Bedford Regional Airport
New Bedford, Massachusetts, USA
Current

25 mins ago

KEWB 150811Z AUTO 35003KT 10SM SCT024 18/17 A3010 RMK AO2 T01830172 $
Observed
Jul-15 @ 08:11 UTC
Wind
  • 350° at 3 KTS
Visibility
10 SM
Flight Rules
VFR
Cloud Levels
  • Scattered at 2,400' AGL
Temperature
18°C / 64°F
Dewpoint
17°C / 63°F
Humidity
94%
Altimeter
30.1" Hg
Pressure
1019.32 hPa
Previous

43 mins ago

KEWB 150753Z AUTO 00000KT 10SM OVC024 19/18 A3009 RMK AO2 SLP189 T01890178 $
Observed
Jul-15 @ 07:53 UTC
Visibility
10 SM
Flight Rules
MVFR
Cloud Levels
  • Overcast at 2,400' AGL
Temperature
19°C / 66°F
Dewpoint
18°C / 64°F
Humidity
94%
Altimeter
30.09" Hg
Pressure
1018.92 hPa
Previous

2 hours ago

KEWB 150703Z AUTO 00000KT 10SM BKN018 BKN024 BKN065 18/18 A3009 RMK AO2 T01830178 $
Observed
Jul-15 @ 07:03 UTC
Visibility
10 SM
Flight Rules
MVFR
Cloud Levels
  • Broken at 1,800' AGL
  • Broken at 2,400' AGL
  • Broken at 6,500' AGL
Temperature
18°C / 64°F
Dewpoint
18°C / 64°F
Humidity
100%
Altimeter
30.09" Hg
Pressure
1018.92 hPa